sensor_id;sensor_type;location;lat;lon;timestamp;pressure;altitude;pressure_sealevel;temperature;humidity
26807;BME280;14380;49.910;6.792;2023-12-14T00:01:40;97765.75;;;8.96;100.00
26807;BME280;14380;49.910;6.792;2023-12-14T00:04:06;97770.63;;;9.02;100.00
26807;BME280;14380;49.910;6.792;2023-12-14T00:06:34;97775.97;;;9.00;100.00
26807;BME280;14380;49.910;6.792;2023-12-14T00:09:01;97786.69;;;8.97;100.00
26807;BME280;14380;49.910;6.792;2023-12-14T00:11:28;97795.00;;;8.91;100.00
26807;BME280;14380;49.910;6.792;2023-12-14T00:13:54;97796.47;;;8.95;100.00
26807;BME280;14380;49.910;6.792;2023-12-14T00:16:21;97790.34;;;8.82;100.00
26807;BME280;14380;49.910;6.792;2023-12-14T00:18:48;97792.91;;;8.96;100.00
26807;BME280;14380;49.910;6.792;2023-12-14T00:21:14;97791.94;;;9.12;100.00
26807;BME280;14380;49.910;6.792;2023-12-14T00:23:42;97794.94;;;9.05;100.00
26807;BME280;14380;49.910;6.792;2023-12-14T00:26:09;97797.19;;;9.12;100.00
26807;BME280;14380;49.910;6.792;2023-12-14T00:28:35;97802.50;;;9.25;100.00
26807;BME280;14380;49.910;6.792;2023-12-14T00:31:02;97805.19;;;9.10;100.00
26807;BME280;14380;49.910;6.792;2023-12-14T00:33:28;97813.38;;;9.05;100.00
26807;BME280;14380;49.910;6.792;2023-12-14T00:35:55;97814.97;;;9.08;100.00
26807;BME280;14380;49.910;6.792;2023-12-14T00:38:21;97815.22;;;9.18;100.00
26807;BME280;14380;49.910;6.792;2023-12-14T00:40:49;97820.19;;;9.22;100.00
26807;BME280;14380;49.910;6.792;2023-12-14T00:43:16;97818.16;;;9.13;100.00
26807;BME280;14380;49.910;6.792;2023-12-14T00:45:43;97826.50;;;9.20;100.00
26807;BME280;14380;49.910;6.792;2023-12-14T00:48:09;97835.00;;;9.11;100.00
26807;BME280;14380;49.910;6.792;2023-12-14T00:50:36;97833.25;;;8.97;100.00
26807;BME280;14380;49.910;6.792;2023-12-14T00:53:02;97842.03;;;9.10;100.00
26807;BME280;14380;49.910;6.792;2023-12-14T00:55:29;97835.09;;;9.09;100.00
26807;BME280;14380;49.910;6.792;2023-12-14T00:57:57;97841.19;;;9.24;100.00
26807;BME280;14380;49.910;6.792;2023-12-14T01:00:24;97833.66;;;9.18;100.00
26807;BME280;14380;49.910;6.792;2023-12-14T01:02:51;97845.19;;;8.88;100.00
26807;BME280;14380;49.910;6.792;2023-12-14T01:05:18;97849.00;;;8.69;100.00
26807;BME280;14380;49.910;6.792;2023-12-14T01:07:44;97856.97;;;8.82;100.00
26807;BME280;14380;49.910;6.792;2023-12-14T01:10:11;97863.03;;;8.55;100.00
26807;BME280;14380;49.910;6.792;2023-12-14T01:12:38;97866.84;;;8.64;100.00
26807;BME280;14380;49.910;6.792;2023-12-14T01:15:09;97877.44;;;8.48;100.00
26807;BME280;14380;49.910;6.792;2023-12-14T01:17:36;97874.63;;;8.37;100.00
26807;BME280;14380;49.910;6.792;2023-12-14T01:20:04;97889.66;;;8.34;100.00
26807;BME280;14380;49.910;6.792;2023-12-14T01:22:31;97888.41;;;8.40;100.00
26807;BME280;14380;49.910;6.792;2023-12-14T01:24:58;97897.59;;;8.49;100.00
26807;BME280;14380;49.910;6.792;2023-12-14T01:27:25;97901.28;;;8.30;100.00
26807;BME280;14380;49.910;6.792;2023-12-14T01:29:52;97905.31;;;8.52;100.00
26807;BME280;14380;49.910;6.792;2023-12-14T01:32:20;97910.75;;;8.49;100.00
26807;BME280;14380;49.910;6.792;2023-12-14T01:34:47;97921.31;;;8.33;100.00
26807;BME280;14380;49.910;6.792;2023-12-14T01:37:14;97919.72;;;8.45;100.00
26807;BME280;14380;49.910;6.792;2023-12-14T01:39:41;97931.31;;;8.57;100.00
26807;BME280;14380;49.910;6.792;2023-12-14T01:42:08;97940.00;;;8.43;100.00
26807;BME280;14380;49.910;6.792;2023-12-14T01:44:34;97946.63;;;8.50;100.00
26807;BME280;14380;49.910;6.792;2023-12-14T01:47:00;97945.00;;;8.47;100.00
26807;BME280;14380;49.910;6.792;2023-12-14T01:49:28;97948.72;;;8.74;100.00
26807;BME280;14380;49.910;6.792;2023-12-14T01:51:54;97950.66;;;8.56;100.00
26807;BME280;14380;49.910;6.792;2023-12-14T01:54:21;97950.41;;;8.60;100.00
26807;BME280;14380;49.910;6.792;2023-12-14T01:56:47;97958.97;;;8.64;100.00
26807;BME280;14380;49.910;6.792;2023-12-14T01:59:14;97963.56;;;8.60;100.00
26807;BME280;14380;49.910;6.792;2023-12-14T02:01:42;97967.41;;;8.55;100.00
26807;BME280;14380;49.910;6.792;2023-12-14T02:04:12;97974.63;;;8.66;100.00
26807;BME280;14380;49.910;6.792;2023-12-14T02:06:41;97983.03;;;8.72;100.00
26807;BME280;14380;49.910;6.792;2023-12-14T02:09:07;97987.63;;;8.83;100.00
26807;BME280;14380;49.910;6.792;2023-12-14T02:11:35;97996.84;;;8.76;100.00
26807;BME280;14380;49.910;6.792;2023-12-14T02:14:05;98005.03;;;8.86;100.00
26807;BME280;14380;49.910;6.792;2023-12-14T02:16:32;98003.63;;;8.95;100.00
26807;BME280;14380;49.910;6.792;2023-12-14T02:18:59;98007.56;;;8.87;100.00
26807;BME280;14380;49.910;6.792;2023-12-14T02:21:25;98011.13;;;8.72;100.00
26807;BME280;14380;49.910;6.792;2023-12-14T02:23:53;98009.59;;;8.68;100.00
26807;BME280;14380;49.910;6.792;2023-12-14T02:26:20;98016.75;;;8.66;100.00
26807;BME280;14380;49.910;6.792;2023-12-14T02:28:48;98016.47;;;8.85;100.00
26807;BME280;14380;49.910;6.792;2023-12-14T02:31:15;98015.19;;;8.77;100.00
26807;BME280;14380;49.910;6.792;2023-12-14T02:33:42;98018.19;;;8.71;100.00
26807;BME280;14380;49.910;6.792;2023-12-14T02:36:08;98022.69;;;8.69;100.00
26807;BME280;14380;49.910;6.792;2023-12-14T02:38:35;98031.34;;;8.71;100.00
26807;BME280;14380;49.910;6.792;2023-12-14T02:41:04;98030.66;;;8.68;100.00
26807;BME280;14380;49.910;6.792;2023-12-14T02:43:31;98040.72;;;8.61;100.00
26807;BME280;14380;49.910;6.792;2023-12-14T02:45:58;98033.00;;;8.58;100.00
26807;BME280;14380;49.910;6.792;2023-12-14T02:48:27;98037.97;;;8.62;100.00
26807;BME280;14380;49.910;6.792;2023-12-14T02:50:54;98045.13;;;8.60;100.00
26807;BME280;14380;49.910;6.792;2023-12-14T02:53:21;98040.38;;;8.82;100.00
26807;BME280;14380;49.910;6.792;2023-12-14T02:55:47;98042.50;;;8.60;100.00
26807;BME280;14380;49.910;6.792;2023-12-14T02:58:15;98052.81;;;8.63;100.00
26807;BME280;14380;49.910;6.792;2023-12-14T03:00:42;98050.78;;;8.69;100.00
26807;BME280;14380;49.910;6.792;2023-12-14T03:03:08;98051.09;;;8.78;100.00
26807;BME280;14380;49.910;6.792;2023-12-14T03:05:36;98055.47;;;8.63;100.00
26807;BME280;14380;49.910;6.792;2023-12-14T03:08:02;98051.81;;;8.66;100.00
26807;BME280;14380;49.910;6.792;2023-12-14T03:10:29;98061.94;;;8.58;100.00
26807;BME280;14380;49.910;6.792;2023-12-14T03:12:56;98066.38;;;8.57;100.00
26807;BME280;14380;49.910;6.792;2023-12-14T03:15:24;98068.06;;;8.58;100.00
26807;BME280;14380;49.910;6.792;2023-12-14T03:17:51;98077.66;;;8.59;100.00
26807;BME280;14380;49.910;6.792;2023-12-14T03:20:17;98080.47;;;8.56;100.00
26807;BME280;14380;49.910;6.792;2023-12-14T03:22:44;98084.22;;;8.67;100.00
26807;BME280;14380;49.910;6.792;2023-12-14T03:25:11;98091.69;;;8.74;100.00
26807;BME280;14380;49.910;6.792;2023-12-14T03:27:37;98086.28;;;8.61;100.00
26807;BME280;14380;49.910;6.792;2023-12-14T03:30:05;98085.44;;;8.61;100.00
26807;BME280;14380;49.910;6.792;2023-12-14T03:32:36;98089.78;;;8.46;100.00
26807;BME280;14380;49.910;6.792;2023-12-14T03:35:04;98094.91;;;8.49;100.00
26807;BME280;14380;49.910;6.792;2023-12-14T03:37:30;98094.09;;;8.63;100.00
26807;BME280;14380;49.910;6.792;2023-12-14T03:39:56;98097.94;;;8.57;100.00
26807;BME280;14380;49.910;6.792;2023-12-14T03:42:24;98104.03;;;8.42;100.00
26807;BME280;14380;49.910;6.792;2023-12-14T03:44:51;98108.72;;;8.53;100.00
26807;BME280;14380;49.910;6.792;2023-12-14T03:47:17;98118.66;;;8.31;100.00
26807;BME280;14380;49.910;6.792;2023-12-14T03:49:45;98129.13;;;8.47;100.00
26807;BME280;14380;49.910;6.792;2023-12-14T03:52:14;98127.66;;;8.59;100.00
26807;BME280;14380;49.910;6.792;2023-12-14T03:54:41;98128.94;;;8.52;100.00
26807;BME280;14380;49.910;6.792;2023-12-14T03:57:07;98137.41;;;8.57;100.00
26807;BME280;14380;49.910;6.792;2023-12-14T03:59:38;98147.94;;;8.57;100.00
26807;BME280;14380;49.910;6.792;2023-12-14T04:02:05;98148.41;;;8.48;100.00
26807;BME280;14380;49.910;6.792;2023-12-14T04:04:34;98146.78;;;8.61;100.00
26807;BME280;14380;49.910;6.792;2023-12-14T04:07:02;98147.53;;;8.49;100.00
26807;BME280;14380;49.910;6.792;2023-12-14T04:09:28;98155.69;;;8.75;100.00
26807;BME280;14380;49.910;6.792;2023-12-14T04:11:55;98161.66;;;8.62;100.00
26807;BME280;14380;49.910;6.792;2023-12-14T04:14:22;98168.56;;;8.49;100.00
26807;BME280;14380;49.910;6.792;2023-12-14T04:16:48;98173.38;;;8.57;100.00
26807;BME280;14380;49.910;6.792;2023-12-14T04:19:15;98173.31;;;8.58;100.00
26807;BME280;14380;49.910;6.792;2023-12-14T04:21:41;98181.22;;;8.58;100.00
26807;BME280;14380;49.910;6.792;2023-12-14T04:24:10;98179.41;;;8.59;100.00
26807;BME280;14380;49.910;6.792;2023-12-14T04:26:37;98184.25;;;8.51;100.00
26807;BME280;14380;49.910;6.792;2023-12-14T04:29:05;98183.56;;;8.47;100.00
26807;BME280;14380;49.910;6.792;2023-12-14T04:31:33;98186.06;;;8.50;100.00
26807;BME280;14380;49.910;6.792;2023-12-14T04:34:01;98195.34;;;8.72;100.00
26807;BME280;14380;49.910;6.792;2023-12-14T04:36:28;98189.66;;;8.47;100.00
26807;BME280;14380;49.910;6.792;2023-12-14T04:38:54;98207.41;;;8.60;100.00
26807;BME280;14380;49.910;6.792;2023-12-14T04:41:22;98205.72;;;8.59;100.00
26807;BME280;14380;49.910;6.792;2023-12-14T04:43:49;98205.22;;;8.68;100.00
26807;BME280;14380;49.910;6.792;2023-12-14T04:46:16;98215.22;;;8.77;100.00
26807;BME280;14380;49.910;6.792;2023-12-14T04:48:42;98212.56;;;8.45;100.00
26807;BME280;14380;49.910;6.792;2023-12-14T04:51:11;98218.59;;;8.63;100.00
26807;BME280;14380;49.910;6.792;2023-12-14T04:53:39;98224.56;;;8.67;100.00
26807;BME280;14380;49.910;6.792;2023-12-14T04:56:09;98224.06;;;8.60;100.00
26807;BME280;14380;49.910;6.792;2023-12-14T04:58:38;98232.38;;;8.53;100.00
26807;BME280;14380;49.910;6.792;2023-12-14T05:01:05;98236.47;;;8.09;100.00
26807;BME280;14380;49.910;6.792;2023-12-14T05:03:32;98237.88;;;8.48;100.00
26807;BME280;14380;49.910;6.792;2023-12-14T05:05:58;98239.84;;;8.76;100.00
26807;BME280;14380;49.910;6.792;2023-12-14T05:08:25;98244.25;;;8.76;100.00
26807;BME280;14380;49.910;6.792;2023-12-14T05:10:52;98241.97;;;8.70;100.00
26807;BME280;14380;49.910;6.792;2023-12-14T05:13:18;98247.94;;;8.57;100.00
26807;BME280;14380;49.910;6.792;2023-12-14T05:15:46;98251.31;;;8.59;100.00
26807;BME280;14380;49.910;6.792;2023-12-14T05:18:13;98255.88;;;8.72;100.00
26807;BME280;14380;49.910;6.792;2023-12-14T05:20:40;98256.31;;;8.64;100.00
26807;BME280;14380;49.910;6.792;2023-12-14T05:23:06;98267.56;;;8.34;100.00
26807;BME280;14380;49.910;6.792;2023-12-14T05:25:35;98272.31;;;8.43;100.00
26807;BME280;14380;49.910;6.792;2023-12-14T05:28:02;98274.88;;;8.45;100.00
26807;BME280;14380;49.910;6.792;2023-12-14T05:30:28;98281.38;;;8.38;100.00
26807;BME280;14380;49.910;6.792;2023-12-14T05:32:57;98293.94;;;8.32;100.00
26807;BME280;14380;49.910;6.792;2023-12-14T05:35:23;98292.84;;;8.37;100.00
26807;BME280;14380;49.910;6.792;2023-12-14T05:37:51;98294.22;;;8.44;100.00
26807;BME280;14380;49.910;6.792;2023-12-14T05:40:17;98297.00;;;8.58;100.00
26807;BME280;14380;49.910;6.792;2023-12-14T05:42:44;98306.16;;;8.51;100.00
26807;BME280;14380;49.910;6.792;2023-12-14T05:45:11;98311.88;;;8.42;100.00
26807;BME280;14380;49.910;6.792;2023-12-14T05:47:37;98310.78;;;8.46;100.00
26807;BME280;14380;49.910;6.792;2023-12-14T05:50:08;98318.72;;;8.44;100.00
26807;BME280;14380;49.910;6.792;2023-12-14T05:52:35;98321.72;;;8.38;100.00
26807;BME280;14380;49.910;6.792;2023-12-14T05:55:02;98334.31;;;8.49;100.00
26807;BME280;14380;49.910;6.792;2023-12-14T05:57:28;98330.59;;;8.69;100.00
26807;BME280;14380;49.910;6.792;2023-12-14T05:59:55;98334.34;;;8.47;100.00
26807;BME280;14380;49.910;6.792;2023-12-14T06:02:22;98340.09;;;8.56;100.00
26807;BME280;14380;49.910;6.792;2023-12-14T06:04:51;98345.13;;;8.60;100.00
26807;BME280;14380;49.910;6.792;2023-12-14T06:07:19;98351.22;;;8.61;100.00
26807;BME280;14380;49.910;6.792;2023-12-14T06:09:45;98355.81;;;8.40;100.00
26807;BME280;14380;49.910;6.792;2023-12-14T06:12:12;98368.81;;;8.43;100.00
26807;BME280;14380;49.910;6.792;2023-12-14T06:14:39;98363.38;;;8.46;100.00
26807;BME280;14380;49.910;6.792;2023-12-14T06:17:07;98362.63;;;8.26;100.00
26807;BME280;14380;49.910;6.792;2023-12-14T06:19:34;98374.31;;;8.38;100.00
26807;BME280;14380;49.910;6.792;2023-12-14T06:22:01;98375.31;;;8.36;100.00
26807;BME280;14380;49.910;6.792;2023-12-14T06:24:29;98383.94;;;8.22;100.00
26807;BME280;14380;49.910;6.792;2023-12-14T06:26:55;98383.63;;;8.10;100.00
26807;BME280;14380;49.910;6.792;2023-12-14T06:29:22;98390.75;;;8.08;100.00
26807;BME280;14380;49.910;6.792;2023-12-14T06:31:48;98396.72;;;8.12;100.00
26807;BME280;14380;49.910;6.792;2023-12-14T06:34:16;98400.88;;;7.98;100.00
26807;BME280;14380;49.910;6.792;2023-12-14T06:36:43;98403.81;;;8.10;100.00
26807;BME280;14380;49.910;6.792;2023-12-14T06:39:09;98413.63;;;8.06;100.00
26807;BME280;14380;49.910;6.792;2023-12-14T06:41:38;98411.94;;;8.23;100.00
26807;BME280;14380;49.910;6.792;2023-12-14T06:44:05;98411.06;;;8.22;100.00
26807;BME280;14380;49.910;6.792;2023-12-14T06:46:34;98416.16;;;8.25;100.00
26807;BME280;14380;49.910;6.792;2023-12-14T06:49:01;98413.53;;;8.25;100.00
26807;BME280;14380;49.910;6.792;2023-12-14T06:51:27;98425.09;;;8.23;100.00
26807;BME280;14380;49.910;6.792;2023-12-14T06:53:55;98432.97;;;7.87;100.00
26807;BME280;14380;49.910;6.792;2023-12-14T06:56:21;98453.13;;;7.87;100.00
26807;BME280;14380;49.910;6.792;2023-12-14T06:58:49;98457.31;;;7.91;100.00
26807;BME280;14380;49.910;6.792;2023-12-14T07:01:16;98464.25;;;7.74;100.00
26807;BME280;14380;49.910;6.792;2023-12-14T07:03:44;98467.50;;;7.80;100.00
26807;BME280;14380;49.910;6.792;2023-12-14T07:06:12;98471.78;;;8.00;100.00
26807;BME280;14380;49.910;6.792;2023-12-14T07:08:39;98479.41;;;7.87;100.00
26807;BME280;14380;49.910;6.792;2023-12-14T07:11:06;98488.19;;;8.05;100.00
26807;BME280;14380;49.910;6.792;2023-12-14T07:13:33;98495.03;;;7.90;100.00
26807;BME280;14380;49.910;6.792;2023-12-14T07:16:03;98512.06;;;7.64;100.00
26807;BME280;14380;49.910;6.792;2023-12-14T07:18:30;98513.88;;;7.81;100.00
26807;BME280;14380;49.910;6.792;2023-12-14T07:20:56;98521.34;;;7.90;100.00
26807;BME280;14380;49.910;6.792;2023-12-14T07:23:23;98531.34;;;8.18;100.00
26807;BME280;14380;49.910;6.792;2023-12-14T07:25:50;98531.59;;;8.14;100.00
26807;BME280;14380;49.910;6.792;2023-12-14T07:28:16;98541.72;;;8.22;100.00
26807;BME280;14380;49.910;6.792;2023-12-14T07:30:43;98539.25;;;8.18;100.00
26807;BME280;14380;49.910;6.792;2023-12-14T07:33:11;98543.28;;;8.26;100.00
26807;BME280;14380;49.910;6.792;2023-12-14T07:35:38;98546.91;;;8.06;100.00
26807;BME280;14380;49.910;6.792;2023-12-14T07:38:04;98551.13;;;7.91;100.00
26807;BME280;14380;49.910;6.792;2023-12-14T07:40:31;98560.97;;;8.04;100.00
26807;BME280;14380;49.910;6.792;2023-12-14T07:42:58;98563.47;;;7.88;100.00
26807;BME280;14380;49.910;6.792;2023-12-14T07:45:25;98565.06;;;8.10;100.00
26807;BME280;14380;49.910;6.792;2023-12-14T07:47:51;98571.19;;;8.11;100.00
26807;BME280;14380;49.910;6.792;2023-12-14T07:50:21;98573.91;;;7.90;100.00
26807;BME280;14380;49.910;6.792;2023-12-14T07:52:47;98576.66;;;8.06;100.00
26807;BME280;14380;49.910;6.792;2023-12-14T07:55:14;98587.25;;;8.04;100.00
26807;BME280;14380;49.910;6.792;2023-12-14T07:57:41;98591.41;;;7.72;100.00
26807;BME280;14380;49.910;6.792;2023-12-14T08:00:09;98589.22;;;8.18;100.00
26807;BME280;14380;49.910;6.792;2023-12-14T08:02:37;98586.22;;;8.26;100.00
26807;BME280;14380;49.910;6.792;2023-12-14T08:05:04;98600.91;;;8.13;100.00
26807;BME280;14380;49.910;6.792;2023-12-14T08:07:33;98604.19;;;8.36;100.00
26807;BME280;14380;49.910;6.792;2023-12-14T08:10:00;98605.78;;;8.21;100.00
26807;BME280;14380;49.910;6.792;2023-12-14T08:12:27;98610.81;;;8.25;100.00
26807;BME280;14380;49.910;6.792;2023-12-14T08:14:53;98611.97;;;8.19;100.00
26807;BME280;14380;49.910;6.792;2023-12-14T08:17:20;98617.66;;;8.47;100.00
26807;BME280;14380;49.910;6.792;2023-12-14T08:19:47;98626.09;;;8.17;100.00
26807;BME280;14380;49.910;6.792;2023-12-14T08:22:14;98628.38;;;8.25;100.00
26807;BME280;14380;49.910;6.792;2023-12-14T08:24:42;98640.50;;;8.27;100.00
26807;BME280;14380;49.910;6.792;2023-12-14T08:27:09;98638.22;;;8.39;100.00
26807;BME280;14380;49.910;6.792;2023-12-14T08:29:35;98648.53;;;8.43;100.00
26807;BME280;14380;49.910;6.792;2023-12-14T08:32:02;98659.75;;;8.47;100.00
26807;BME280;14380;49.910;6.792;2023-12-14T08:34:29;98662.69;;;8.41;100.00
26807;BME280;14380;49.910;6.792;2023-12-14T08:36:56;98664.09;;;8.67;100.00
26807;BME280;14380;49.910;6.792;2023-12-14T08:39:23;98665.16;;;8.44;100.00
26807;BME280;14380;49.910;6.792;2023-12-14T08:41:51;98673.72;;;8.49;100.00
26807;BME280;14380;49.910;6.792;2023-12-14T08:44:17;98682.34;;;8.14;100.00
26807;BME280;14380;49.910;6.792;2023-12-14T08:46:45;98685.09;;;8.30;100.00
26807;BME280;14380;49.910;6.792;2023-12-14T08:49:12;98688.38;;;8.55;100.00
26807;BME280;14380;49.910;6.792;2023-12-14T08:51:41;98704.16;;;8.36;100.00
26807;BME280;14380;49.910;6.792;2023-12-14T08:54:09;98703.47;;;8.51;100.00
26807;BME280;14380;49.910;6.792;2023-12-14T08:56:35;98713.88;;;8.72;100.00
26807;BME280;14380;49.910;6.792;2023-12-14T08:59:03;98714.94;;;8.68;100.00
26807;BME280;14380;49.910;6.792;2023-12-14T09:01:31;98711.25;;;8.53;100.00
26807;BME280;14380;49.910;6.792;2023-12-14T09:03:57;98713.94;;;8.70;100.00
26807;BME280;14380;49.910;6.792;2023-12-14T09:06:24;98725.56;;;8.66;100.00
26807;BME280;14380;49.910;6.792;2023-12-14T09:08:54;98725.19;;;8.55;100.00
26807;BME280;14380;49.910;6.792;2023-12-14T09:11:21;98728.88;;;8.70;100.00
26807;BME280;14380;49.910;6.792;2023-12-14T09:13:48;98732.25;;;8.91;100.00
26807;BME280;14380;49.910;6.792;2023-12-14T09:16:17;98731.25;;;9.11;100.00
26807;BME280;14380;49.910;6.792;2023-12-14T09:18:44;98742.03;;;9.06;100.00
26807;BME280;14380;49.910;6.792;2023-12-14T09:21:10;98737.94;;;9.18;100.00
26807;BME280;14380;49.910;6.792;2023-12-14T09:23:37;98739.47;;;9.22;100.00
26807;BME280;14380;49.910;6.792;2023-12-14T09:26:06;98748.19;;;9.42;100.00
26807;BME280;14380;49.910;6.792;2023-12-14T09:28:32;98744.28;;;9.32;100.00
26807;BME280;14380;49.910;6.792;2023-12-14T09:30:59;98753.28;;;9.28;100.00
26807;BME280;14380;49.910;6.792;2023-12-14T09:33:27;98760.50;;;9.24;100.00
26807;BME280;14380;49.910;6.792;2023-12-14T09:35:53;98761.63;;;9.18;100.00
26807;BME280;14380;49.910;6.792;2023-12-14T09:38:20;98762.81;;;9.48;100.00
26807;BME280;14380;49.910;6.792;2023-12-14T09:40:46;98778.16;;;9.57;100.00
26807;BME280;14380;49.910;6.792;2023-12-14T09:43:13;98782.34;;;9.44;100.00
26807;BME280;14380;49.910;6.792;2023-12-14T09:45:41;98790.66;;;9.36;100.00
26807;BME280;14380;49.910;6.792;2023-12-14T09:48:10;98792.72;;;9.29;100.00
26807;BME280;14380;49.910;6.792;2023-12-14T09:50:39;98797.56;;;9.56;100.00
26807;BME280;14380;49.910;6.792;2023-12-14T09:53:06;98798.16;;;9.44;100.00
26807;BME280;14380;49.910;6.792;2023-12-14T09:55:33;98792.81;;;9.63;100.00
26807;BME280;14380;49.910;6.792;2023-12-14T09:58:00;98803.94;;;9.15;100.00
26807;BME280;14380;49.910;6.792;2023-12-14T10:00:36;98811.78;;;9.17;100.00
26807;BME280;14380;49.910;6.792;2023-12-14T10:03:24;98817.56;;;9.60;100.00
26807;BME280;14380;49.910;6.792;2023-12-14T10:05:54;98818.31;;;9.80;100.00
26807;BME280;14380;49.910;6.792;2023-12-14T10:08:22;98822.50;;;9.49;100.00
26807;BME280;14380;49.910;6.792;2023-12-14T10:10:50;98823.13;;;9.89;100.00
26807;BME280;14380;49.910;6.792;2023-12-14T10:13:18;98818.47;;;9.77;100.00
26807;BME280;14380;49.910;6.792;2023-12-14T10:15:46;98823.53;;;9.81;100.00
26807;BME280;14380;49.910;6.792;2023-12-14T10:18:21;98822.59;;;9.65;100.00
26807;BME280;14380;49.910;6.792;2023-12-14T10:20:48;98833.97;;;10.01;100.00
26807;BME280;14380;49.910;6.792;2023-12-14T10:23:17;98834.38;;;9.93;100.00
26807;BME280;14380;49.910;6.792;2023-12-14T10:25:44;98845.50;;;10.16;100.00
26807;BME280;14380;49.910;6.792;2023-12-14T10:28:11;98844.38;;;9.86;100.00
26807;BME280;14380;49.910;6.792;2023-12-14T10:30:38;98849.56;;;10.05;100.00
26807;BME280;14380;49.910;6.792;2023-12-14T10:33:05;98848.25;;;9.79;100.00
26807;BME280;14380;49.910;6.792;2023-12-14T10:35:32;98846.84;;;9.72;100.00
26807;BME280;14380;49.910;6.792;2023-12-14T10:38:03;98844.16;;;9.91;100.00
26807;BME280;14380;49.910;6.792;2023-12-14T10:40:31;98848.91;;;10.18;100.00
26807;BME280;14380;49.910;6.792;2023-12-14T10:42:59;98850.16;;;10.10;100.00
26807;BME280;14380;49.910;6.792;2023-12-14T10:45:32;98852.44;;;9.65;100.00
26807;BME280;14380;49.910;6.792;2023-12-14T10:47:59;98851.25;;;10.06;100.00
26807;BME280;14380;49.910;6.792;2023-12-14T10:50:28;98858.34;;;10.06;100.00
26807;BME280;14380;49.910;6.792;2023-12-14T10:52:56;98858.56;;;9.84;100.00
26807;BME280;14380;49.910;6.792;2023-12-14T10:55:29;98858.72;;;9.98;100.00
26807;BME280;14380;49.910;6.792;2023-12-14T10:57:59;98866.47;;;9.66;100.00
26807;BME280;14380;49.910;6.792;2023-12-14T11:00:27;98860.50;;;9.80;100.00
26807;BME280;14380;49.910;6.792;2023-12-14T11:02:54;98868.81;;;9.90;100.00
26807;BME280;14380;49.910;6.792;2023-12-14T11:05:22;98873.75;;;9.96;100.00
26807;BME280;14380;49.910;6.792;2023-12-14T11:07:55;98871.66;;;9.85;100.00
26807;BME280;14380;49.910;6.792;2023-12-14T11:10:36;98877.09;;;9.82;100.00
26807;BME280;14380;49.910;6.792;2023-12-14T11:13:06;98886.56;;;9.69;100.00
26807;BME280;14380;49.910;6.792;2023-12-14T11:15:35;98891.00;;;9.86;100.00
26807;BME280;14380;49.910;6.792;2023-12-14T11:18:29;98891.44;;;9.94;100.00
26807;BME280;14380;49.910;6.792;2023-12-14T11:20:58;98898.34;;;9.79;100.00
26807;BME280;14380;49.910;6.792;2023-12-14T11:23:32;98904.56;;;9.95;100.00
26807;BME280;14380;49.910;6.792;2023-12-14T11:26:00;98907.47;;;9.54;100.00
26807;BME280;14380;49.910;6.792;2023-12-14T11:28:32;98918.59;;;9.78;100.00
26807;BME280;14380;49.910;6.792;2023-12-14T11:31:00;98915.72;;;9.65;100.00
26807;BME280;14380;49.910;6.792;2023-12-14T11:33:32;98927.91;;;9.86;100.00
26807;BME280;14380;49.910;6.792;2023-12-14T11:35:58;98928.56;;;9.54;100.00
26807;BME280;14380;49.910;6.792;2023-12-14T11:38:24;98933.44;;;9.44;100.00
26807;BME280;14380;49.910;6.792;2023-12-14T11:40:51;98941.06;;;9.12;100.00
26807;BME280;14380;49.910;6.792;2023-12-14T11:43:18;98937.09;;;9.59;100.00
26807;BME280;14380;49.910;6.792;2023-12-14T11:45:48;98938.63;;;9.46;100.00
26807;BME280;14380;49.910;6.792;2023-12-14T11:48:14;98931.25;;;9.16;100.00
26807;BME280;14380;49.910;6.792;2023-12-14T11:50:42;98935.75;;;9.50;100.00
26807;BME280;14380;49.910;6.792;2023-12-14T11:53:10;98935.78;;;9.12;100.00
26807;BME280;14380;49.910;6.792;2023-12-14T11:55:38;98933.84;;;9.54;100.00
26807;BME280;14380;49.910;6.792;2023-12-14T11:58:06;98936.06;;;9.44;100.00
26807;BME280;14380;49.910;6.792;2023-12-14T12:00:34;98946.19;;;9.15;100.00
26807;BME280;14380;49.910;6.792;2023-12-14T12:03:11;98945.63;;;9.28;100.00
26807;BME280;14380;49.910;6.792;2023-12-14T12:05:39;98949.19;;;9.27;100.00
26807;BME280;14380;49.910;6.792;2023-12-14T12:08:06;98949.53;;;9.19;100.00
26807;BME280;14380;49.910;6.792;2023-12-14T12:10:34;98949.72;;;9.33;100.00
26807;BME280;14380;49.910;6.792;2023-12-14T12:13:02;98950.00;;;9.65;100.00
26807;BME280;14380;49.910;6.792;2023-12-14T12:15:30;98949.66;;;9.54;100.00
26807;BME280;14380;49.910;6.792;2023-12-14T12:17:58;98960.00;;;9.76;100.00
26807;BME280;14380;49.910;6.792;2023-12-14T12:20:26;98953.09;;;9.37;100.00
26807;BME280;14380;49.910;6.792;2023-12-14T12:22:53;98951.22;;;9.58;100.00
26807;BME280;14380;49.910;6.792;2023-12-14T12:25:21;98954.84;;;9.36;100.00
26807;BME280;14380;49.910;6.792;2023-12-14T12:27:48;98964.22;;;8.85;100.00
26807;BME280;14380;49.910;6.792;2023-12-14T12:30:14;98960.63;;;8.87;100.00
26807;BME280;14380;49.910;6.792;2023-12-14T12:32:41;98965.81;;;9.08;100.00
26807;BME280;14380;49.910;6.792;2023-12-14T12:35:09;98962.06;;;9.14;100.00
26807;BME280;14380;49.910;6.792;2023-12-14T12:37:37;98972.75;;;8.71;100.00
26807;BME280;14380;49.910;6.792;2023-12-14T12:40:05;98967.63;;;8.68;100.00
26807;BME280;14380;49.910;6.792;2023-12-14T12:42:32;98977.66;;;8.59;100.00
26807;BME280;14380;49.910;6.792;2023-12-14T12:44:59;98982.38;;;8.91;100.00
26807;BME280;14380;49.910;6.792;2023-12-14T12:47:26;98976.81;;;8.78;100.00
26807;BME280;14380;49.910;6.792;2023-12-14T12:49:52;98985.66;;;8.77;100.00
26807;BME280;14380;49.910;6.792;2023-12-14T12:52:19;98987.88;;;8.66;100.00
26807;BME280;14380;49.910;6.792;2023-12-14T12:54:47;98984.88;;;8.54;100.00
26807;BME280;14380;49.910;6.792;2023-12-14T12:57:14;98994.06;;;8.01;100.00
26807;BME280;14380;49.910;6.792;2023-12-14T12:59:40;98991.56;;;8.41;100.00
26807;BME280;14380;49.910;6.792;2023-12-14T13:02:07;98992.19;;;8.25;100.00